This is the latest recevied weather packets stored in our database for station/object N4TLC. If no packets are shown the sender has not sent any weather packets the latest 1 day(s).
| Time | Temp. | Humidity | Pressure | Rain* | Wind** | Luminosity | Snow |
|---|---|---|---|---|---|---|---|
| 1778027809 | 22.78° C | 42% | 1015.7 hPa | 0 mm | 0.89 m/s, 141° | 0 W/m² | - |
| 1778027505 | 22.78° C | 41% | 1015.6 hPa | 0 mm | 0.89 m/s, 193° | 0 W/m² | - |
| 1778027201 | 22.78° C | 41% | 1015.5 hPa | 0 mm | 0.89 m/s, 150° | 0 W/m² | - |
| 1778026897 | 23.33° C | 40% | 1015.6 hPa | 0 mm | 0.89 m/s, 135° | 1 W/m² | - |
| 1778026593 | 23.33° C | 40% | 1015.4 hPa | 0 mm | 1.34 m/s, 147° | 2 W/m² | - |
| 1778026291 | 23.33° C | 40% | 1015.6 hPa | 0 mm | 0.45 m/s, 142° | 4 W/m² | - |
| 1778025988 | 23.33° C | 39% | 1015.5 hPa | 0 mm | 0.89 m/s, 154° | 7 W/m² | - |
| 1778025685 | 23.33° C | 39% | 1015.4 hPa | 0 mm | 1.34 m/s, 156° | 10 W/m² | - |
| 1778025383 | 23.89° C | 38% | 1015.3 hPa | 0 mm | 1.34 m/s, 180° | 13 W/m² | - |
| 1778025080 | 23.89° C | 37% | 1015.4 hPa | 0 mm | 0.89 m/s, 176° | 16 W/m² | - |
| 1778024777 | 23.89° C | 37% | 1015.4 hPa | 0 mm | 0.89 m/s, 185° | 19 W/m² | - |
| 1778024473 | 24.44° C | 36% | 1015.4 hPa | 0 mm | 1.34 m/s, 192° | 24 W/m² | - |
| 1778024171 | 24.44° C | 35% | 1015.2 hPa | 0 mm | 0.45 m/s, 212° | 28 W/m² | - |
| 1778023868 | 25° C | 34% | 1015 hPa | 0 mm | 0.89 m/s, 199° | 30 W/m² | - |
| 1778023566 | 25.56° C | 34% | 1015.2 hPa | 0 mm | 1.34 m/s, 173° | 40 W/m² | - |
| 1778023264 | 25.56° C | 34% | 1015.1 hPa | 0 mm | 0.45 m/s, 133° | 53 W/m² | - |
| 1778022960 | 25.56° C | 35% | 1015 hPa | 0 mm | 0.45 m/s, 203° | 60 W/m² | - |
| 1778022659 | 25.56° C | 34% | 1015 hPa | 0 mm | 0.89 m/s, 142° | 62 W/m² | - |
| 1778022356 | 25.56° C | 33% | 1014.9 hPa | 0 mm | 0.89 m/s, 223° | 92 W/m² | - |
| 1778022052 | 26.11° C | 33% | 1015.1 hPa | 0 mm | 1.79 m/s, 207° | 107 W/m² | - |
| 1778021749 | 26.11° C | 32% | 1015 hPa | 0 mm | 1.34 m/s, 192° | 126 W/m² | - |
| 1778021445 | 26.11° C | 32% | 1015.2 hPa | 0 mm | 1.34 m/s, 195° | 140 W/m² | - |
| 1778021142 | 26.11° C | 33% | 1015.1 hPa | 0 mm | 1.34 m/s, 170° | 169 W/m² | - |
| 1778020840 | 26.67° C | 31% | 1015.1 hPa | 0 mm | 2.68 m/s, 201° | 171 W/m² | - |
| 1778020537 | 26.11° C | 32% | 1014.9 hPa | 0 mm | 0.89 m/s, 212° | 211 W/m² | - |
* Rain latest hour (hover to see other rain measurements)
** Current wind speed in m/s (hover to see current wind gust speed)